Terminal Aerodrome Forecast
Issued by NWS

Home | Current Version | Previous Version | Text Only | Print | Product List | Glossary Off
Versions: 1 2 3 4 5 6 7 8 9 10 11 12 13 14 15 16 17 18 19 20 21 22 23

000
FTUS43 KBIS 240524
TAFMOT
TAF
KMOT 240524Z 2406/2506 24013KT P6SM SKC
     FM241100 27025G38KT P6SM OVC050
     FM241400 29027G41KT P6SM SCT120
     FM242100 29021G32KT P6SM FEW250
     FM250000 28012KT P6SM FEW250=

USA.gov is the U.S. government's official web portal to all federal, state and local government web resources and services.